sensor_id;sensor_type;location;lat;lon;timestamp;P1;durP1;ratioP1;P2;durP2;ratioP2
24173;SDS011;12324;48.146;11.502;2023-05-29T00:00:30;20.95;;;9.27;;
24173;SDS011;12324;48.146;11.502;2023-05-29T00:02:58;16.88;;;7.88;;
24173;SDS011;12324;48.146;11.502;2023-05-29T00:05:25;17.98;;;8.68;;
24173;SDS011;12324;48.146;11.502;2023-05-29T00:07:52;17.55;;;8.02;;
24173;SDS011;12324;48.146;11.502;2023-05-29T00:10:19;19.65;;;8.60;;
24173;SDS011;12324;48.146;11.502;2023-05-29T00:12:46;16.45;;;7.35;;
24173;SDS011;12324;48.146;11.502;2023-05-29T00:15:13;18.52;;;8.27;;
24173;SDS011;12324;48.146;11.502;2023-05-29T00:17:40;15.45;;;7.35;;
24173;SDS011;12324;48.146;11.502;2023-05-29T00:20:09;13.55;;;6.72;;
24173;SDS011;12324;48.146;11.502;2023-05-29T00:22:38;18.23;;;7.65;;
24173;SDS011;12324;48.146;11.502;2023-05-29T00:25:06;16.52;;;7.75;;
24173;SDS011;12324;48.146;11.502;2023-05-29T00:27:34;14.43;;;6.65;;
24173;SDS011;12324;48.146;11.502;2023-05-29T00:30:02;17.42;;;8.70;;
24173;SDS011;12324;48.146;11.502;2023-05-29T00:32:30;16.85;;;7.47;;
24173;SDS011;12324;48.146;11.502;2023-05-29T00:34:57;16.38;;;6.75;;
24173;SDS011;12324;48.146;11.502;2023-05-29T00:37:24;17.02;;;7.00;;
24173;SDS011;12324;48.146;11.502;2023-05-29T00:39:52;15.90;;;7.88;;
24173;SDS011;12324;48.146;11.502;2023-05-29T00:42:19;16.10;;;7.55;;
24173;SDS011;12324;48.146;11.502;2023-05-29T00:44:46;16.13;;;7.97;;
24173;SDS011;12324;48.146;11.502;2023-05-29T00:47:13;15.43;;;6.82;;
24173;SDS011;12324;48.146;11.502;2023-05-29T00:49:40;15.02;;;7.18;;
24173;SDS011;12324;48.146;11.502;2023-05-29T00:52:07;17.33;;;7.10;;
24173;SDS011;12324;48.146;11.502;2023-05-29T00:54:36;15.77;;;7.57;;
24173;SDS011;12324;48.146;11.502;2023-05-29T00:57:03;15.68;;;6.78;;
24173;SDS011;12324;48.146;11.502;2023-05-29T00:59:32;16.40;;;7.40;;
24173;SDS011;12324;48.146;11.502;2023-05-29T01:01:59;16.42;;;6.78;;
24173;SDS011;12324;48.146;11.502;2023-05-29T01:04:27;15.02;;;6.63;;
24173;SDS011;12324;48.146;11.502;2023-05-29T01:06:54;16.55;;;7.05;;
24173;SDS011;12324;48.146;11.502;2023-05-29T01:09:22;14.60;;;6.30;;
24173;SDS011;12324;48.146;11.502;2023-05-29T01:14:52;18.75;;;6.20;;
24173;SDS011;12324;48.146;11.502;2023-05-29T01:27:30;17.60;;;7.65;;
24173;SDS011;12324;48.146;11.502;2023-05-29T01:29:58;13.82;;;6.72;;
24173;SDS011;12324;48.146;11.502;2023-05-29T01:32:25;13.23;;;6.70;;
24173;SDS011;12324;48.146;11.502;2023-05-29T01:34:53;15.60;;;6.80;;
24173;SDS011;12324;48.146;11.502;2023-05-29T01:37:20;14.90;;;6.88;;
24173;SDS011;12324;48.146;11.502;2023-05-29T01:39:48;13.25;;;6.35;;
24173;SDS011;12324;48.146;11.502;2023-05-29T01:42:15;12.23;;;6.55;;
24173;SDS011;12324;48.146;11.502;2023-05-29T01:44:43;14.85;;;6.80;;
24173;SDS011;12324;48.146;11.502;2023-05-29T01:47:10;15.95;;;6.45;;
24173;SDS011;12324;48.146;11.502;2023-05-29T01:49:38;16.80;;;6.80;;
24173;SDS011;12324;48.146;11.502;2023-05-29T01:52:06;16.02;;;7.18;;
24173;SDS011;12324;48.146;11.502;2023-05-29T01:54:34;15.50;;;6.60;;
24173;SDS011;12324;48.146;11.502;2023-05-29T01:57:01;17.55;;;7.18;;
24173;SDS011;12324;48.146;11.502;2023-05-29T01:59:28;16.35;;;6.75;;
24173;SDS011;12324;48.146;11.502;2023-05-29T02:01:56;14.93;;;6.60;;
24173;SDS011;12324;48.146;11.502;2023-05-29T02:04:23;16.38;;;6.85;;
24173;SDS011;12324;48.146;11.502;2023-05-29T02:06:51;15.13;;;5.80;;
24173;SDS011;12324;48.146;11.502;2023-05-29T02:09:18;15.45;;;6.45;;
24173;SDS011;12324;48.146;11.502;2023-05-29T02:11:46;16.38;;;6.90;;
24173;SDS011;12324;48.146;11.502;2023-05-29T02:14:13;14.63;;;5.78;;
24173;SDS011;12324;48.146;11.502;2023-05-29T02:16:41;16.48;;;6.28;;
24173;SDS011;12324;48.146;11.502;2023-05-29T02:19:10;17.35;;;6.53;;
24173;SDS011;12324;48.146;11.502;2023-05-29T02:21:38;15.45;;;5.88;;
24173;SDS011;12324;48.146;11.502;2023-05-29T02:24:06;14.55;;;6.15;;
24173;SDS011;12324;48.146;11.502;2023-05-29T02:26:33;14.98;;;6.05;;
24173;SDS011;12324;48.146;11.502;2023-05-29T02:29:02;14.70;;;6.07;;
24173;SDS011;12324;48.146;11.502;2023-05-29T02:31:31;13.50;;;5.75;;
24173;SDS011;12324;48.146;11.502;2023-05-29T02:33:59;15.77;;;6.25;;
24173;SDS011;12324;48.146;11.502;2023-05-29T02:36:26;17.02;;;6.47;;
24173;SDS011;12324;48.146;11.502;2023-05-29T02:38:53;15.75;;;6.28;;
24173;SDS011;12324;48.146;11.502;2023-05-29T02:41:21;12.32;;;5.55;;
24173;SDS011;12324;48.146;11.502;2023-05-29T02:43:48;15.75;;;6.32;;
24173;SDS011;12324;48.146;11.502;2023-05-29T02:46:15;15.25;;;6.25;;
24173;SDS011;12324;48.146;11.502;2023-05-29T02:48:42;12.50;;;5.63;;
24173;SDS011;12324;48.146;11.502;2023-05-29T02:51:09;14.70;;;5.63;;
24173;SDS011;12324;48.146;11.502;2023-05-29T02:53:36;15.60;;;7.68;;
24173;SDS011;12324;48.146;11.502;2023-05-29T02:56:04;14.85;;;6.00;;
24173;SDS011;12324;48.146;11.502;2023-05-29T02:58:32;16.27;;;6.95;;
24173;SDS011;12324;48.146;11.502;2023-05-29T03:00:59;13.23;;;5.65;;
24173;SDS011;12324;48.146;11.502;2023-05-29T03:03:28;14.73;;;6.07;;
24173;SDS011;12324;48.146;11.502;2023-05-29T03:05:55;12.82;;;5.63;;
24173;SDS011;12324;48.146;11.502;2023-05-29T03:08:23;13.40;;;5.55;;
24173;SDS011;12324;48.146;11.502;2023-05-29T03:10:50;13.57;;;6.03;;
24173;SDS011;12324;48.146;11.502;2023-05-29T03:13:18;11.60;;;5.20;;
24173;SDS011;12324;48.146;11.502;2023-05-29T03:15:45;17.77;;;7.32;;
24173;SDS011;12324;48.146;11.502;2023-05-29T03:18:13;14.50;;;6.30;;
24173;SDS011;12324;48.146;11.502;2023-05-29T03:20:40;15.68;;;6.60;;
24173;SDS011;12324;48.146;11.502;2023-05-29T03:23:08;14.65;;;6.30;;
24173;SDS011;12324;48.146;11.502;2023-05-29T03:25:35;12.75;;;5.60;;
24173;SDS011;12324;48.146;11.502;2023-05-29T03:28:02;14.55;;;5.75;;
24173;SDS011;12324;48.146;11.502;2023-05-29T03:30:29;17.35;;;6.97;;
24173;SDS011;12324;48.146;11.502;2023-05-29T03:32:56;12.48;;;5.82;;
24173;SDS011;12324;48.146;11.502;2023-05-29T03:35:29;14.85;;;6.80;;
24173;SDS011;12324;48.146;11.502;2023-05-29T03:37:57;14.77;;;6.43;;
24173;SDS011;12324;48.146;11.502;2023-05-29T03:40:24;16.48;;;6.82;;
24173;SDS011;12324;48.146;11.502;2023-05-29T03:42:51;15.35;;;6.53;;
24173;SDS011;12324;48.146;11.502;2023-05-29T03:45:18;18.67;;;7.22;;
24173;SDS011;12324;48.146;11.502;2023-05-29T03:47:45;17.63;;;7.45;;
24173;SDS011;12324;48.146;11.502;2023-05-29T03:50:12;18.05;;;7.30;;
24173;SDS011;12324;48.146;11.502;2023-05-29T03:52:41;16.98;;;6.88;;
24173;SDS011;12324;48.146;11.502;2023-05-29T03:55:09;14.43;;;6.85;;
24173;SDS011;12324;48.146;11.502;2023-05-29T03:57:40;15.93;;;7.00;;
24173;SDS011;12324;48.146;11.502;2023-05-29T04:00:08;15.55;;;6.82;;
24173;SDS011;12324;48.146;11.502;2023-05-29T04:02:36;18.95;;;7.97;;
24173;SDS011;12324;48.146;11.502;2023-05-29T04:05:04;17.52;;;6.95;;
24173;SDS011;12324;48.146;11.502;2023-05-29T04:07:32;14.02;;;6.20;;
24173;SDS011;12324;48.146;11.502;2023-05-29T04:09:59;14.63;;;6.63;;
24173;SDS011;12324;48.146;11.502;2023-05-29T04:12:26;17.08;;;7.68;;
24173;SDS011;12324;48.146;11.502;2023-05-29T04:14:53;14.73;;;6.40;;
24173;SDS011;12324;48.146;11.502;2023-05-29T04:17:20;15.35;;;5.97;;
24173;SDS011;12324;48.146;11.502;2023-05-29T04:19:47;14.95;;;7.28;;
24173;SDS011;12324;48.146;11.502;2023-05-29T04:22:13;16.45;;;6.93;;
24173;SDS011;12324;48.146;11.502;2023-05-29T04:24:41;16.60;;;6.38;;
24173;SDS011;12324;48.146;11.502;2023-05-29T04:27:08;16.45;;;6.97;;
24173;SDS011;12324;48.146;11.502;2023-05-29T04:29:39;14.30;;;6.75;;
24173;SDS011;12324;48.146;11.502;2023-05-29T04:32:09;15.80;;;6.75;;
24173;SDS011;12324;48.146;11.502;2023-05-29T04:34:37;16.38;;;6.82;;
24173;SDS011;12324;48.146;11.502;2023-05-29T04:37:10;15.52;;;6.93;;
24173;SDS011;12324;48.146;11.502;2023-05-29T04:39:36;15.23;;;7.05;;
24173;SDS011;12324;48.146;11.502;2023-05-29T04:42:04;14.32;;;6.72;;
24173;SDS011;12324;48.146;11.502;2023-05-29T04:44:31;16.50;;;6.80;;
24173;SDS011;12324;48.146;11.502;2023-05-29T04:46:59;15.18;;;6.78;;
24173;SDS011;12324;48.146;11.502;2023-05-29T04:49:29;16.40;;;7.18;;
24173;SDS011;12324;48.146;11.502;2023-05-29T04:51:56;16.15;;;7.28;;
24173;SDS011;12324;48.146;11.502;2023-05-29T04:54:26;17.60;;;6.40;;
24173;SDS011;12324;48.146;11.502;2023-05-29T04:56:53;13.65;;;6.05;;
24173;SDS011;12324;48.146;11.502;2023-05-29T04:59:21;13.43;;;5.75;;
24173;SDS011;12324;48.146;11.502;2023-05-29T05:01:48;15.65;;;6.90;;
24173;SDS011;12324;48.146;11.502;2023-05-29T05:04:15;15.45;;;6.75;;
24173;SDS011;12324;48.146;11.502;2023-05-29T05:06:42;14.23;;;6.45;;
24173;SDS011;12324;48.146;11.502;2023-05-29T05:09:11;15.98;;;6.97;;
24173;SDS011;12324;48.146;11.502;2023-05-29T05:11:38;15.23;;;6.95;;
24173;SDS011;12324;48.146;11.502;2023-05-29T05:14:05;16.42;;;7.03;;
24173;SDS011;12324;48.146;11.502;2023-05-29T05:16:32;18.33;;;6.90;;
24173;SDS011;12324;48.146;11.502;2023-05-29T05:18:59;13.13;;;5.80;;
24173;SDS011;12324;48.146;11.502;2023-05-29T05:21:27;12.55;;;5.80;;
24173;SDS011;12324;48.146;11.502;2023-05-29T05:23:57;13.15;;;5.95;;
24173;SDS011;12324;48.146;11.502;2023-05-29T05:26:24;12.43;;;5.28;;
24173;SDS011;12324;48.146;11.502;2023-05-29T05:28:52;13.98;;;5.88;;
24173;SDS011;12324;48.146;11.502;2023-05-29T05:31:19;12.00;;;5.93;;
24173;SDS011;12324;48.146;11.502;2023-05-29T05:33:47;11.50;;;5.40;;
24173;SDS011;12324;48.146;11.502;2023-05-29T05:36:16;14.60;;;5.75;;
24173;SDS011;12324;48.146;11.502;2023-05-29T05:38:43;16.33;;;5.90;;
24173;SDS011;12324;48.146;11.502;2023-05-29T05:41:11;14.55;;;6.47;;
24173;SDS011;12324;48.146;11.502;2023-05-29T05:43:38;18.35;;;6.03;;
24173;SDS011;12324;48.146;11.502;2023-05-29T05:46:05;16.80;;;5.80;;
24173;SDS011;12324;48.146;11.502;2023-05-29T05:48:32;12.85;;;5.57;;
24173;SDS011;12324;48.146;11.502;2023-05-29T05:51:00;14.43;;;5.63;;
24173;SDS011;12324;48.146;11.502;2023-05-29T05:53:27;13.00;;;5.35;;
24173;SDS011;12324;48.146;11.502;2023-05-29T05:55:54;15.00;;;6.40;;
24173;SDS011;12324;48.146;11.502;2023-05-29T05:58:21;13.30;;;5.47;;
24173;SDS011;12324;48.146;11.502;2023-05-29T06:00:49;12.93;;;5.50;;
24173;SDS011;12324;48.146;11.502;2023-05-29T06:03:19;15.80;;;5.45;;
24173;SDS011;12324;48.146;11.502;2023-05-29T06:05:47;12.57;;;5.28;;
24173;SDS011;12324;48.146;11.502;2023-05-29T06:08:14;14.25;;;5.85;;
24173;SDS011;12324;48.146;11.502;2023-05-29T06:10:41;12.30;;;5.28;;
24173;SDS011;12324;48.146;11.502;2023-05-29T06:13:08;15.15;;;6.40;;
24173;SDS011;12324;48.146;11.502;2023-05-29T06:15:36;15.50;;;5.75;;
24173;SDS011;12324;48.146;11.502;2023-05-29T06:18:04;11.95;;;5.70;;
24173;SDS011;12324;48.146;11.502;2023-05-29T06:20:31;12.07;;;5.78;;
24173;SDS011;12324;48.146;11.502;2023-05-29T06:22:58;11.75;;;5.18;;
24173;SDS011;12324;48.146;11.502;2023-05-29T06:25:26;11.98;;;5.22;;
24173;SDS011;12324;48.146;11.502;2023-05-29T06:27:59;10.53;;;4.73;;
24173;SDS011;12324;48.146;11.502;2023-05-29T06:30:26;13.63;;;5.65;;
24173;SDS011;12324;48.146;11.502;2023-05-29T06:32:54;13.93;;;5.28;;
24173;SDS011;12324;48.146;11.502;2023-05-29T06:35:21;13.93;;;5.28;;
24173;SDS011;12324;48.146;11.502;2023-05-29T06:37:48;11.57;;;4.78;;
24173;SDS011;12324;48.146;11.502;2023-05-29T06:40:15;9.77;;;4.45;;
24173;SDS011;12324;48.146;11.502;2023-05-29T06:42:42;10.77;;;4.97;;
24173;SDS011;12324;48.146;11.502;2023-05-29T06:45:11;16.08;;;5.40;;
24173;SDS011;12324;48.146;11.502;2023-05-29T06:47:41;10.65;;;4.68;;
24173;SDS011;12324;48.146;11.502;2023-05-29T06:50:09;15.32;;;5.38;;
24173;SDS011;12324;48.146;11.502;2023-05-29T06:52:36;12.68;;;4.80;;
24173;SDS011;12324;48.146;11.502;2023-05-29T06:55:03;13.40;;;5.78;;
24173;SDS011;12324;48.146;11.502;2023-05-29T06:57:31;11.30;;;4.57;;
24173;SDS011;12324;48.146;11.502;2023-05-29T06:59:58;10.73;;;4.88;;
24173;SDS011;12324;48.146;11.502;2023-05-29T07:02:25;14.65;;;5.63;;
24173;SDS011;12324;48.146;11.502;2023-05-29T07:04:52;12.65;;;5.05;;
24173;SDS011;12324;48.146;11.502;2023-05-29T07:07:20;14.02;;;5.70;;
24173;SDS011;12324;48.146;11.502;2023-05-29T07:09:47;10.80;;;4.78;;
24173;SDS011;12324;48.146;11.502;2023-05-29T07:12:14;11.90;;;5.60;;
24173;SDS011;12324;48.146;11.502;2023-05-29T07:14:41;11.02;;;4.40;;
24173;SDS011;12324;48.146;11.502;2023-05-29T07:17:08;12.93;;;4.75;;
24173;SDS011;12324;48.146;11.502;2023-05-29T07:19:35;15.05;;;4.55;;
24173;SDS011;12324;48.146;11.502;2023-05-29T07:22:02;14.55;;;4.32;;
24173;SDS011;12324;48.146;11.502;2023-05-29T07:24:30;10.73;;;5.00;;
24173;SDS011;12324;48.146;11.502;2023-05-29T07:26:57;13.60;;;4.47;;
24173;SDS011;12324;48.146;11.502;2023-05-29T07:29:24;12.80;;;5.43;;
24173;SDS011;12324;48.146;11.502;2023-05-29T07:31:51;10.57;;;4.28;;
24173;SDS011;12324;48.146;11.502;2023-05-29T07:34:18;13.15;;;4.70;;
24173;SDS011;12324;48.146;11.502;2023-05-29T07:37:01;14.07;;;4.72;;
24173;SDS011;12324;48.146;11.502;2023-05-29T07:39:30;12.68;;;5.32;;
24173;SDS011;12324;48.146;11.502;2023-05-29T07:41:59;12.35;;;5.30;;
24173;SDS011;12324;48.146;11.502;2023-05-29T07:44:27;11.70;;;4.57;;
24173;SDS011;12324;48.146;11.502;2023-05-29T07:46:54;10.93;;;4.22;;
24173;SDS011;12324;48.146;11.502;2023-05-29T07:49:21;10.85;;;4.53;;
24173;SDS011;12324;48.146;11.502;2023-05-29T07:51:48;13.07;;;5.28;;
24173;SDS011;12324;48.146;11.502;2023-05-29T07:54:16;12.60;;;5.65;;
24173;SDS011;12324;48.146;11.502;2023-05-29T07:56:44;11.02;;;4.50;;
24173;SDS011;12324;48.146;11.502;2023-05-29T07:59:11;14.63;;;5.50;;
24173;SDS011;12324;48.146;11.502;2023-05-29T08:01:39;13.35;;;5.72;;
24173;SDS011;12324;48.146;11.502;2023-05-29T08:04:06;12.45;;;5.20;;
24173;SDS011;12324;48.146;11.502;2023-05-29T08:06:33;13.18;;;4.93;;
24173;SDS011;12324;48.146;11.502;2023-05-29T08:09:00;11.73;;;5.15;;
24173;SDS011;12324;48.146;11.502;2023-05-29T08:11:27;11.88;;;4.82;;
24173;SDS011;12324;48.146;11.502;2023-05-29T08:13:55;13.00;;;5.80;;
24173;SDS011;12324;48.146;11.502;2023-05-29T08:16:22;12.95;;;5.47;;
24173;SDS011;12324;48.146;11.502;2023-05-29T08:18:49;11.70;;;4.93;;
24173;SDS011;12324;48.146;11.502;2023-05-29T08:21:16;11.60;;;5.13;;
24173;SDS011;12324;48.146;11.502;2023-05-29T08:23:43;14.00;;;5.60;;
24173;SDS011;12324;48.146;11.502;2023-05-29T08:26:11;12.30;;;5.15;;
24173;SDS011;12324;48.146;11.502;2023-05-29T08:28:38;11.02;;;4.93;;
24173;SDS011;12324;48.146;11.502;2023-05-29T08:31:08;9.23;;;4.32;;
24173;SDS011;12324;48.146;11.502;2023-05-29T08:33:35;11.35;;;4.28;;
24173;SDS011;12324;48.146;11.502;2023-05-29T08:36:03;12.55;;;4.78;;
24173;SDS011;12324;48.146;11.502;2023-05-29T08:38:30;10.90;;;5.22;;
24173;SDS011;12324;48.146;11.502;2023-05-29T08:40:57;12.70;;;4.78;;
24173;SDS011;12324;48.146;11.502;2023-05-29T08:43:30;10.27;;;4.85;;
24173;SDS011;12324;48.146;11.502;2023-05-29T08:46:01;10.18;;;4.47;;
24173;SDS011;12324;48.146;11.502;2023-05-29T08:48:29;11.95;;;4.95;;
24173;SDS011;12324;48.146;11.502;2023-05-29T08:50:57;9.25;;;4.25;;
24173;SDS011;12324;48.146;11.502;2023-05-29T08:53:24;13.75;;;5.13;;
24173;SDS011;12324;48.146;11.502;2023-05-29T08:55:52;12.85;;;6.05;;
24173;SDS011;12324;48.146;11.502;2023-05-29T08:58:21;13.90;;;4.97;;
24173;SDS011;12324;48.146;11.502;2023-05-29T09:00:49;11.85;;;5.50;;
24173;SDS011;12324;48.146;11.502;2023-05-29T09:03:17;12.80;;;5.35;;
24173;SDS011;12324;48.146;11.502;2023-05-29T09:05:47;11.00;;;4.72;;
24173;SDS011;12324;48.146;11.502;2023-05-29T09:08:15;11.25;;;5.45;;
24173;SDS011;12324;48.146;11.502;2023-05-29T09:10:43;9.95;;;5.00;;
24173;SDS011;12324;48.146;11.502;2023-05-29T09:13:11;11.15;;;5.22;;
24173;SDS011;12324;48.146;11.502;2023-05-29T09:15:39;11.23;;;5.10;;
24173;SDS011;12324;48.146;11.502;2023-05-29T09:18:10;11.15;;;4.72;;
24173;SDS011;12324;48.146;11.502;2023-05-29T09:20:37;10.90;;;4.57;;
24173;SDS011;12324;48.146;11.502;2023-05-29T09:23:07;13.10;;;5.25;;
24173;SDS011;12324;48.146;11.502;2023-05-29T09:25:37;10.27;;;4.22;;
24173;SDS011;12324;48.146;11.502;2023-05-29T09:28:06;11.98;;;4.85;;
24173;SDS011;12324;48.146;11.502;2023-05-29T09:33:06;11.18;;;5.15;;
24173;SDS011;12324;48.146;11.502;2023-05-29T09:35:37;10.45;;;4.38;;
24173;SDS011;12324;48.146;11.502;2023-05-29T09:38:06;8.82;;;3.83;;
24173;SDS011;12324;48.146;11.502;2023-05-29T09:40:34;10.15;;;4.25;;
24173;SDS011;12324;48.146;11.502;2023-05-29T09:43:17;9.65;;;4.13;;
24173;SDS011;12324;48.146;11.502;2023-05-29T09:45:47;11.25;;;4.28;;
24173;SDS011;12324;48.146;11.502;2023-05-29T09:48:15;9.73;;;4.18;;
24173;SDS011;12324;48.146;11.502;2023-05-29T09:50:43;11.85;;;4.47;;
24173;SDS011;12324;48.146;11.502;2023-05-29T09:55:47;11.45;;;4.60;;
24173;SDS011;12324;48.146;11.502;2023-05-29T09:58:14;11.20;;;4.40;;
24173;SDS011;12324;48.146;11.502;2023-05-29T10:00:42;11.57;;;4.65;;
24173;SDS011;12324;48.146;11.502;2023-05-29T10:03:09;10.45;;;4.18;;
24173;SDS011;12324;48.146;11.502;2023-05-29T10:05:39;10.55;;;4.53;;
24173;SDS011;12324;48.146;11.502;2023-05-29T10:08:11;7.53;;;3.72;;
24173;SDS011;12324;48.146;11.502;2023-05-29T10:10:44;9.18;;;4.00;;
24173;SDS011;12324;48.146;11.502;2023-05-29T10:13:15;7.03;;;3.33;;
24173;SDS011;12324;48.146;11.502;2023-05-29T10:15:44;10.48;;;4.10;;
24173;SDS011;12324;48.146;11.502;2023-05-29T10:18:13;11.60;;;4.30;;
24173;SDS011;12324;48.146;11.502;2023-05-29T10:20:45;9.90;;;3.90;;
24173;SDS011;12324;48.146;11.502;2023-05-29T10:23:15;8.02;;;3.38;;
24173;SDS011;12324;48.146;11.502;2023-05-29T10:25:43;9.65;;;3.72;;
24173;SDS011;12324;48.146;11.502;2023-05-29T10:28:11;9.98;;;3.95;;
24173;SDS011;12324;48.146;11.502;2023-05-29T10:35:42;8.65;;;3.55;;
24173;SDS011;12324;48.146;11.502;2023-05-29T10:38:12;8.85;;;3.50;;
24173;SDS011;12324;48.146;11.502;2023-05-29T10:40:41;8.70;;;3.03;;
24173;SDS011;12324;48.146;11.502;2023-05-29T10:43:09;8.68;;;3.25;;
24173;SDS011;12324;48.146;11.502;2023-05-29T10:45:57;9.15;;;4.05;;
24173;SDS011;12324;48.146;11.502;2023-05-29T10:50:55;7.18;;;3.22;;
24173;SDS011;12324;48.146;11.502;2023-05-29T10:53:23;10.25;;;4.22;;
24173;SDS011;12324;48.146;11.502;2023-05-29T10:55:51;11.15;;;3.80;;
24173;SDS011;12324;48.146;11.502;2023-05-29T10:58:20;11.20;;;3.75;;
24173;SDS011;12324;48.146;11.502;2023-05-29T11:00:47;11.02;;;3.90;;
24173;SDS011;12324;48.146;11.502;2023-05-29T11:03:19;9.23;;;3.78;;
24173;SDS011;12324;48.146;11.502;2023-05-29T11:11:28;7.75;;;3.60;;
24173;SDS011;12324;48.146;11.502;2023-05-29T11:13:57;7.43;;;3.40;;
24173;SDS011;12324;48.146;11.502;2023-05-29T11:18:59;7.55;;;3.40;;
24173;SDS011;12324;48.146;11.502;2023-05-29T11:24:06;10.73;;;4.28;;
24173;SDS011;12324;48.146;11.502;2023-05-29T11:26:34;8.93;;;3.30;;
24173;SDS011;12324;48.146;11.502;2023-05-29T11:29:03;10.63;;;4.38;;
24173;SDS011;12324;48.146;11.502;2023-05-29T11:31:33;10.25;;;3.88;;
24173;SDS011;12324;48.146;11.502;2023-05-29T11:34:03;8.30;;;3.70;;
24173;SDS011;12324;48.146;11.502;2023-05-29T11:36:32;9.70;;;3.58;;
24173;SDS011;12324;48.146;11.502;2023-05-29T11:39:00;8.90;;;3.15;;
24173;SDS011;12324;48.146;11.502;2023-05-29T11:41:28;10.63;;;4.03;;
24173;SDS011;12324;48.146;11.502;2023-05-29T11:44:02;11.35;;;3.65;;
24173;SDS011;12324;48.146;11.502;2023-05-29T11:46:29;8.80;;;4.18;;
24173;SDS011;12324;48.146;11.502;2023-05-29T11:49:00;7.40;;;3.10;;
24173;SDS011;12324;48.146;11.502;2023-05-29T11:51:27;7.75;;;3.25;;
24173;SDS011;12324;48.146;11.502;2023-05-29T11:53:54;10.73;;;3.90;;
24173;SDS011;12324;48.146;11.502;2023-05-29T11:56:25;10.85;;;3.55;;
24173;SDS011;12324;48.146;11.502;2023-05-29T11:58:53;10.65;;;3.53;;
24173;SDS011;12324;48.146;11.502;2023-05-29T12:01:26;8.52;;;3.67;;
24173;SDS011;12324;48.146;11.502;2023-05-29T12:03:56;8.35;;;3.38;;
24173;SDS011;12324;48.146;11.502;2023-05-29T12:06:41;8.13;;;3.40;;
24173;SDS011;12324;48.146;11.502;2023-05-29T12:09:08;6.68;;;3.08;;
24173;SDS011;12324;48.146;11.502;2023-05-29T12:11:35;9.40;;;3.88;;
24173;SDS011;12324;48.146;11.502;2023-05-29T12:14:03;8.95;;;3.20;;
24173;SDS011;12324;48.146;11.502;2023-05-29T12:16:30;7.15;;;3.05;;
24173;SDS011;12324;48.146;11.502;2023-05-29T12:19:00;10.15;;;4.28;;
24173;SDS011;12324;48.146;11.502;2023-05-29T12:21:27;7.95;;;3.58;;
24173;SDS011;12324;48.146;11.502;2023-05-29T12:23:54;10.63;;;3.35;;
24173;SDS011;12324;48.146;11.502;2023-05-29T12:26:39;8.00;;;3.58;;
24173;SDS011;12324;48.146;11.502;2023-05-29T12:29:06;9.05;;;3.70;;
24173;SDS011;12324;48.146;11.502;2023-05-29T12:31:33;9.10;;;3.83;;
24173;SDS011;12324;48.146;11.502;2023-05-29T12:34:01;9.73;;;3.80;;
24173;SDS011;12324;48.146;11.502;2023-05-29T12:36:29;10.88;;;3.53;;
24173;SDS011;12324;48.146;11.502;2023-05-29T12:38:57;8.82;;;3.50;;
24173;SDS011;12324;48.146;11.502;2023-05-29T12:41:24;5.65;;;2.97;;
24173;SDS011;12324;48.146;11.502;2023-05-29T12:43:53;6.32;;;3.30;;
24173;SDS011;12324;48.146;11.502;2023-05-29T12:46:21;9.52;;;4.00;;
24173;SDS011;12324;48.146;11.502;2023-05-29T12:48:48;9.13;;;3.78;;
24173;SDS011;12324;48.146;11.502;2023-05-29T12:51:17;6.95;;;3.28;;
24173;SDS011;12324;48.146;11.502;2023-05-29T12:53:45;7.88;;;3.30;;
24173;SDS011;12324;48.146;11.502;2023-05-29T12:56:12;10.82;;;4.10;;
24173;SDS011;12324;48.146;11.502;2023-05-29T12:58:39;8.20;;;3.17;;
24173;SDS011;12324;48.146;11.502;2023-05-29T13:01:11;8.48;;;3.45;;
24173;SDS011;12324;48.146;11.502;2023-05-29T13:03:40;10.68;;;3.80;;
24173;SDS011;12324;48.146;11.502;2023-05-29T13:06:08;7.85;;;4.20;;
24173;SDS011;12324;48.146;11.502;2023-05-29T13:08:35;7.45;;;3.58;;
24173;SDS011;12324;48.146;11.502;2023-05-29T13:11:02;7.88;;;3.58;;
24173;SDS011;12324;48.146;11.502;2023-05-29T13:13:29;9.70;;;3.95;;
24173;SDS011;12324;48.146;11.502;2023-05-29T13:15:56;7.97;;;3.22;;
24173;SDS011;12324;48.146;11.502;2023-05-29T13:18:24;8.07;;;3.38;;
24173;SDS011;12324;48.146;11.502;2023-05-29T13:20:51;10.00;;;3.95;;
24173;SDS011;12324;48.146;11.502;2023-05-29T13:23:18;8.07;;;3.30;;
24173;SDS011;12324;48.146;11.502;2023-05-29T13:25:45;9.73;;;3.75;;
24173;SDS011;12324;48.146;11.502;2023-05-29T13:28:15;9.15;;;3.75;;
24173;SDS011;12324;48.146;11.502;2023-05-29T13:30:42;7.75;;;3.45;;
24173;SDS011;12324;48.146;11.502;2023-05-29T13:33:09;9.93;;;3.78;;
24173;SDS011;12324;48.146;11.502;2023-05-29T13:35:37;8.77;;;3.75;;
24173;SDS011;12324;48.146;11.502;2023-05-29T13:38:04;11.43;;;3.88;;
24173;SDS011;12324;48.146;11.502;2023-05-29T13:40:31;9.40;;;4.10;;
24173;SDS011;12324;48.146;11.502;2023-05-29T13:42:58;11.52;;;3.55;;
24173;SDS011;12324;48.146;11.502;2023-05-29T13:45:25;9.70;;;3.28;;
24173;SDS011;12324;48.146;11.502;2023-05-29T13:47:54;9.05;;;3.97;;
24173;SDS011;12324;48.146;11.502;2023-05-29T13:50:21;9.05;;;3.50;;
24173;SDS011;12324;48.146;11.502;2023-05-29T13:52:50;9.00;;;3.53;;
24173;SDS011;12324;48.146;11.502;2023-05-29T13:55:17;8.85;;;3.47;;
24173;SDS011;12324;48.146;11.502;2023-05-29T13:57:44;9.35;;;3.83;;
24173;SDS011;12324;48.146;11.502;2023-05-29T14:00:12;7.40;;;3.53;;
24173;SDS011;12324;48.146;11.502;2023-05-29T14:02:39;7.03;;;2.97;;
24173;SDS011;12324;48.146;11.502;2023-05-29T14:05:06;8.68;;;3.08;;
24173;SDS011;12324;48.146;11.502;2023-05-29T14:07:33;6.78;;;3.65;;
24173;SDS011;12324;48.146;11.502;2023-05-29T14:10:01;10.35;;;3.85;;
24173;SDS011;12324;48.146;11.502;2023-05-29T14:12:28;8.35;;;3.33;;
24173;SDS011;12324;48.146;11.502;2023-05-29T14:14:55;8.02;;;3.80;;
24173;SDS011;12324;48.146;11.502;2023-05-29T14:17:22;6.75;;;3.00;;
24173;SDS011;12324;48.146;11.502;2023-05-29T14:19:52;10.02;;;3.60;;
24173;SDS011;12324;48.146;11.502;2023-05-29T14:22:19;8.38;;;3.67;;
24173;SDS011;12324;48.146;11.502;2023-05-29T14:24:46;6.75;;;3.17;;
24173;SDS011;12324;48.146;11.502;2023-05-29T14:27:13;7.38;;;3.47;;
24173;SDS011;12324;48.146;11.502;2023-05-29T14:29:41;5.90;;;3.15;;
24173;SDS011;12324;48.146;11.502;2023-05-29T14:32:08;6.28;;;3.20;;
24173;SDS011;12324;48.146;11.502;2023-05-29T14:34:35;7.25;;;3.47;;
24173;SDS011;12324;48.146;11.502;2023-05-29T14:37:02;6.47;;;3.30;;
24173;SDS011;12324;48.146;11.502;2023-05-29T14:39:30;8.38;;;3.58;;
24173;SDS011;12324;48.146;11.502;2023-05-29T14:41:57;9.73;;;3.72;;
24173;SDS011;12324;48.146;11.502;2023-05-29T14:44:24;7.72;;;3.35;;
24173;SDS011;12324;48.146;11.502;2023-05-29T14:46:51;7.70;;;3.70;;
24173;SDS011;12324;48.146;11.502;2023-05-29T14:49:19;9.05;;;3.55;;
24173;SDS011;12324;48.146;11.502;2023-05-29T14:51:47;8.10;;;3.50;;
24173;SDS011;12324;48.146;11.502;2023-05-29T14:54:14;9.15;;;3.55;;
24173;SDS011;12324;48.146;11.502;2023-05-29T14:56:41;8.38;;;3.55;;
24173;SDS011;12324;48.146;11.502;2023-05-29T14:59:08;7.55;;;3.30;;
24173;SDS011;12324;48.146;11.502;2023-05-29T15:01:35;8.60;;;3.80;;
24173;SDS011;12324;48.146;11.502;2023-05-29T15:04:03;9.43;;;4.20;;
24173;SDS011;12324;48.146;11.502;2023-05-29T15:06:30;8.43;;;3.22;;